Hoegh Berlin — C6XQ4 — position and weather

sailwx.info

Track history (hours):
 
Tides and Currents Weather Stations Pressure Air Temp Water Temp Dewpoint Dewpoint Depression Visibility Wind Speed Wind Dir Waves Ship Positions

Hoegh Berlin

Last reported at 2016-Jun-17 17:10 UTC. Time now 2016-Jun-30 06:53 UTC.
Position N 31°23' E 032°20'.
Warning: this ship's position is 12 days out of date.

Length 228 m; draft 8.8 m.

Type: Cargo ship. MMSI: 311019100.

Date/timePositionNaut miles runAvg speedWind from/ knotsBaromVisibWave heightAir tempDewpointWater temp
2016-Jun-17 17:10N 31°23' E 032°20'0 0.0
2016-Jun-17 15:10N 31°23' E 032°20'0 0.0
2016-Jun-17 14:32N 31°23' E 032°20'0 0.0
2016-Jun-17 13:26N 31°23' E 032°20'0 0.2
2016-Jun-17 12:33N 31°23' E 032°20'5010.1
2016-Jun-17 07:33N 31°52' E 031°32'17614.5
2016-Jun-16 19:23N 32°42' E 028°13'  
2016-Jun-14 04:18N 36°04' E 014°45'6 7.8
2016-Jun-14 03:32N 36°06' E 014°38'8 7.7
2016-Jun-14 02:33N 36°11' E 014°31'8 8.3
2016-Jun-14 01:34N 36°15' E 014°22'1313.1
2016-Jun-14 00:33N 36°19' E 014°07'1414.0
2016-Jun-13 23:34N 36°24' E 013°51'1414.2
2016-Jun-13 22:33N 36°30' E 013°34'2014.6
2016-Jun-13 21:11N 36°38' E 013°11'6015.0
2016-Jun-13 17:10N 37°00' E 012°02'42210.1
2016-Jun-11 23:34N 38°54' E 003°26'1414.1
2016-Jun-11 22:33N 38°57' E 003°09'1414.2
2016-Jun-11 21:33N 39°00' E 002°51'1414.3
2016-Jun-11 20:33N 39°04' E 002°33'1414.5
2016-Jun-11 19:33N 39°07' E 002°15'1414.5
2016-Jun-11 18:33N 39°10' E 001°57'1514.5
2016-Jun-11 17:33N 39°13' E 001°38'1414.4
2016-Jun-11 16:33N 39°16' E 001°20'1514.5
2016-Jun-11 15:33N 39°18' E 001°01'1514.5
2016-Jun-11 14:33N 39°19' E 000°43'4214.0
2016-Jun-11 11:34N 39°24' W 000°11'6 5.4
2016-Jun-11 10:24N 39°27' W 000°18'0 0.0
2016-Jun-11 09:33N 39°27' W 000°18'0 0.0
2016-Jun-11 08:24N 39°27' W 000°18'0 0.0
2016-Jun-11 07:30N 39°27' W 000°18'0 0.0
2016-Jun-11 06:30N 39°27' W 000°18'0 0.0
2016-Jun-11 05:30N 39°27' W 000°18'0 0.0
2016-Jun-11 04:28N 39°27' W 000°18'1 1.6
2016-Jun-11 03:33N 39°25' W 000°18'24 9.8
2016-Jun-11 01:08N 39°08' E 000°03'6 9.9
2016-Jun-11 00:32N 39°04' E 000°08'1510.2
2016-Jun-10 23:05N 38°53' E 000°21'510.0
2016-Jun-10 22:33N 38°49' E 000°25'9 8.8
2016-Jun-10 21:30N 38°39' E 000°26'1110.1
2016-Jun-10 20:26N 38°30' E 000°18'910.2
2016-Jun-10 19:33N 38°23' E 000°12'1010.1
2016-Jun-10 18:33N 38°15' E 000°05'1010.3
2016-Jun-10 17:33N 38°06' W 000°02'1110.8
2016-Jun-10 16:33N 37°57' W 000°10'1111.3
2016-Jun-10 15:33N 37°48' W 000°18'1111.1
2016-Jun-10 14:33N 37°39' W 000°26'1110.8
2016-Jun-10 13:33N 37°30' W 000°34'1110.8
2016-Jun-10 12:33N 37°23' W 000°44'1110.4
2016-Jun-10 11:32N 37°15' W 000°54'1110.5
2016-Jun-10 10:32N 37°08' W 001°03'21114.0
2016-Jun-09 19:30N 35°59' W 005°11'13814.9
2016-Jun-09 10:16N 36°09' W 008°01'2514.2
2016-Jun-09 08:30N 36°13' W 008°32'3214.9
2016-Jun-09 06:22N 36°19' W 009°10'2714.1
2016-Jun-09 04:29N 36°27' W 009°42'2814.2
2016-Jun-09 02:31N 36°33' W 010°16'1514.2
2016-Jun-09 01:27N 36°34' W 010°34'1314.4
2016-Jun-09 00:33N 36°35' W 010°50'1414.0
2016-Jun-08 23:32N 36°36' W 011°08'1414.4
2016-Jun-08 22:33N 36°37' W 011°26'1514.7
2016-Jun-08 21:33N 36°38' W 011°44'1514.3
2016-Jun-08 20:32N 36°39' W 012°02'1414.3
2016-Jun-08 19:32N 36°40' W 012°20'1414.3
2016-Jun-08 18:32N 36°41' W 012°38'1914.1
2016-Jun-08 17:12N 36°42' W 013°01'914.0
2016-Jun-08 16:33N 36°43' W 013°12'1414.1
2016-Jun-08 15:33N 36°44' W 013°30'1414.4
2016-Jun-08 14:33N 36°45' W 013°48'1914.0
2016-Jun-08 13:12N 36°47' W 014°12'914.1
2016-Jun-08 12:33N 36°47' W 014°23'  
Track history (hours):
 
Tides and Currents Weather Stations Pressure Air Temp Water Temp Dewpoint Dewpoint Depression Visibility Wind Speed Wind Dir Waves Ship Positions

Hoegh Berlin

Last reported at 2016-Jun-17 17:10 UTC. Time now 2016-Jun-30 06:53 UTC.
Position N 31°23' E 032°20'.
Warning: this ship's position is 12 days out of date.

Length 228 m; draft 8.8 m.

Type: Cargo ship. MMSI: 311019100.

Date/timePositionNaut miles runAvg speedWind from/ knotsBaromVisibWave heightAir tempDewpointWater temp
2016-Jun-17 17:10N 31°23' E 032°20'0 0.0
2016-Jun-17 15:10N 31°23' E 032°20'0 0.0
2016-Jun-17 14:32N 31°23' E 032°20'0 0.0
2016-Jun-17 13:26N 31°23' E 032°20'0 0.2
2016-Jun-17 12:33N 31°23' E 032°20'5010.1
2016-Jun-17 07:33N 31°52' E 031°32'17614.5
2016-Jun-16 19:23N 32°42' E 028°13'  
2016-Jun-14 04:18N 36°04' E 014°45'6 7.8
2016-Jun-14 03:32N 36°06' E 014°38'8 7.7
2016-Jun-14 02:33N 36°11' E 014°31'8 8.3
2016-Jun-14 01:34N 36°15' E 014°22'1313.1
2016-Jun-14 00:33N 36°19' E 014°07'1414.0
2016-Jun-13 23:34N 36°24' E 013°51'1414.2
2016-Jun-13 22:33N 36°30' E 013°34'2014.6
2016-Jun-13 21:11N 36°38' E 013°11'6015.0
2016-Jun-13 17:10N 37°00' E 012°02'42210.1
2016-Jun-11 23:34N 38°54' E 003°26'1414.1
2016-Jun-11 22:33N 38°57' E 003°09'1414.2
2016-Jun-11 21:33N 39°00' E 002°51'1414.3
2016-Jun-11 20:33N 39°04' E 002°33'1414.5
2016-Jun-11 19:33N 39°07' E 002°15'1414.5
2016-Jun-11 18:33N 39°10' E 001°57'1514.5
2016-Jun-11 17:33N 39°13' E 001°38'1414.4
2016-Jun-11 16:33N 39°16' E 001°20'1514.5
2016-Jun-11 15:33N 39°18' E 001°01'1514.5
2016-Jun-11 14:33N 39°19' E 000°43'4214.0
2016-Jun-11 11:34N 39°24' W 000°11'6 5.4
2016-Jun-11 10:24N 39°27' W 000°18'0 0.0
2016-Jun-11 09:33N 39°27' W 000°18'0 0.0
2016-Jun-11 08:24N 39°27' W 000°18'0 0.0
2016-Jun-11 07:30N 39°27' W 000°18'0 0.0
2016-Jun-11 06:30N 39°27' W 000°18'0 0.0
2016-Jun-11 05:30N 39°27' W 000°18'0 0.0
2016-Jun-11 04:28N 39°27' W 000°18'1 1.6
2016-Jun-11 03:33N 39°25' W 000°18'24 9.8
2016-Jun-11 01:08N 39°08' E 000°03'6 9.9
2016-Jun-11 00:32N 39°04' E 000°08'1510.2
2016-Jun-10 23:05N 38°53' E 000°21'510.0
2016-Jun-10 22:33N 38°49' E 000°25'9 8.8
2016-Jun-10 21:30N 38°39' E 000°26'1110.1
2016-Jun-10 20:26N 38°30' E 000°18'910.2
2016-Jun-10 19:33N 38°23' E 000°12'1010.1
2016-Jun-10 18:33N 38°15' E 000°05'1010.3
2016-Jun-10 17:33N 38°06' W 000°02'1110.8
2016-Jun-10 16:33N 37°57' W 000°10'1111.3
2016-Jun-10 15:33N 37°48' W 000°18'1111.1
2016-Jun-10 14:33N 37°39' W 000°26'1110.8
2016-Jun-10 13:33N 37°30' W 000°34'1110.8
2016-Jun-10 12:33N 37°23' W 000°44'1110.4
2016-Jun-10 11:32N 37°15' W 000°54'1110.5
2016-Jun-10 10:32N 37°08' W 001°03'21114.0
2016-Jun-09 19:30N 35°59' W 005°11'13814.9
2016-Jun-09 10:16N 36°09' W 008°01'2514.2
2016-Jun-09 08:30N 36°13' W 008°32'3214.9
2016-Jun-09 06:22N 36°19' W 009°10'2714.1
2016-Jun-09 04:29N 36°27' W 009°42'2814.2
2016-Jun-09 02:31N 36°33' W 010°16'1514.2
2016-Jun-09 01:27N 36°34' W 010°34'1314.4
2016-Jun-09 00:33N 36°35' W 010°50'1414.0
2016-Jun-08 23:32N 36°36' W 011°08'1414.4
2016-Jun-08 22:33N 36°37' W 011°26'1514.7
2016-Jun-08 21:33N 36°38' W 011°44'1514.3
2016-Jun-08 20:32N 36°39' W 012°02'1414.3
2016-Jun-08 19:32N 36°40' W 012°20'1414.3
2016-Jun-08 18:32N 36°41' W 012°38'1914.1
2016-Jun-08 17:12N 36°42' W 013°01'914.0
2016-Jun-08 16:33N 36°43' W 013°12'1414.1
2016-Jun-08 15:33N 36°44' W 013°30'1414.4
2016-Jun-08 14:33N 36°45' W 013°48'1914.0
2016-Jun-08 13:12N 36°47' W 014°12'914.1
2016-Jun-08 12:33N 36°47' W 014°23'  

Dump ship's entire track history